sensor_id;sensor_type;location;lat;lon;timestamp;P1;durP1;ratioP1;P2;durP2;ratioP2
54823;SDS011;40724;53.196;5.980;2023-03-31T00:02:01;26.52;;;8.40;;
54823;SDS011;40724;53.196;5.980;2023-03-31T00:04:31;28.80;;;8.77;;
54823;SDS011;40724;53.196;5.980;2023-03-31T00:06:57;30.70;;;8.75;;
54823;SDS011;40724;53.196;5.980;2023-03-31T00:09:24;26.13;;;8.93;;
54823;SDS011;40724;53.196;5.980;2023-03-31T00:11:50;22.75;;;7.97;;
54823;SDS011;40724;53.196;5.980;2023-03-31T00:14:17;23.27;;;9.18;;
54823;SDS011;40724;53.196;5.980;2023-03-31T00:16:43;33.45;;;9.00;;
54823;SDS011;40724;53.196;5.980;2023-03-31T00:19:10;19.08;;;7.90;;
54823;SDS011;40724;53.196;5.980;2023-03-31T00:21:46;27.47;;;8.47;;
54823;SDS011;40724;53.196;5.980;2023-03-31T00:24:12;32.83;;;9.30;;
54823;SDS011;40724;53.196;5.980;2023-03-31T00:26:39;25.92;;;8.27;;
54823;SDS011;40724;53.196;5.980;2023-03-31T00:29:06;21.52;;;7.63;;
54823;SDS011;40724;53.196;5.980;2023-03-31T00:31:32;32.05;;;7.97;;
54823;SDS011;40724;53.196;5.980;2023-03-31T00:33:59;22.23;;;8.35;;
54823;SDS011;40724;53.196;5.980;2023-03-31T00:36:25;27.23;;;9.15;;
54823;SDS011;40724;53.196;5.980;2023-03-31T00:39:00;28.02;;;7.85;;
54823;SDS011;40724;53.196;5.980;2023-03-31T00:41:33;26.08;;;7.60;;
54823;SDS011;40724;53.196;5.980;2023-03-31T00:46:27;26.80;;;9.02;;
54823;SDS011;40724;53.196;5.980;2023-03-31T00:48:55;24.75;;;7.38;;
54823;SDS011;40724;53.196;5.980;2023-03-31T00:51:23;28.88;;;10.02;;
54823;SDS011;40724;53.196;5.980;2023-03-31T00:53:55;30.38;;;7.90;;
54823;SDS011;40724;53.196;5.980;2023-03-31T00:56:23;27.55;;;7.22;;
54823;SDS011;40724;53.196;5.980;2023-03-31T00:58:51;21.80;;;7.97;;
54823;SDS011;40724;53.196;5.980;2023-03-31T01:01:19;18.45;;;8.38;;
54823;SDS011;40724;53.196;5.980;2023-03-31T01:03:48;24.77;;;7.90;;
54823;SDS011;40724;53.196;5.980;2023-03-31T01:06:15;28.23;;;7.10;;
54823;SDS011;40724;53.196;5.980;2023-03-31T01:08:45;26.98;;;8.45;;
54823;SDS011;40724;53.196;5.980;2023-03-31T01:11:12;27.42;;;7.53;;
54823;SDS011;40724;53.196;5.980;2023-03-31T01:13:40;26.80;;;8.63;;
54823;SDS011;40724;53.196;5.980;2023-03-31T01:16:07;26.35;;;9.98;;
54823;SDS011;40724;53.196;5.980;2023-03-31T01:18:33;20.92;;;8.38;;
54823;SDS011;40724;53.196;5.980;2023-03-31T01:37:27;21.70;;;7.70;;
54823;SDS011;40724;53.196;5.980;2023-03-31T01:45:13;22.33;;;7.38;;
54823;SDS011;40724;53.196;5.980;2023-03-31T01:47:52;16.27;;;6.75;;
54823;SDS011;40724;53.196;5.980;2023-03-31T01:52:56;23.48;;;7.78;;
54823;SDS011;40724;53.196;5.980;2023-03-31T01:55:29;28.95;;;8.55;;
54823;SDS011;40724;53.196;5.980;2023-03-31T01:57:58;22.63;;;7.93;;
54823;SDS011;40724;53.196;5.980;2023-03-31T02:00:31;19.80;;;6.65;;
54823;SDS011;40724;53.196;5.980;2023-03-31T02:03:05;23.55;;;7.38;;
54823;SDS011;40724;53.196;5.980;2023-03-31T02:05:39;24.67;;;7.65;;
54823;SDS011;40724;53.196;5.980;2023-03-31T02:08:14;18.52;;;7.75;;
54823;SDS011;40724;53.196;5.980;2023-03-31T02:10:41;27.95;;;7.78;;
54823;SDS011;40724;53.196;5.980;2023-03-31T02:13:08;17.20;;;6.63;;
54823;SDS011;40724;53.196;5.980;2023-03-31T02:15:36;21.40;;;7.32;;
54823;SDS011;40724;53.196;5.980;2023-03-31T02:18:04;24.73;;;6.80;;
54823;SDS011;40724;53.196;5.980;2023-03-31T02:20:35;28.50;;;6.22;;
54823;SDS011;40724;53.196;5.980;2023-03-31T02:23:03;24.77;;;6.30;;
54823;SDS011;40724;53.196;5.980;2023-03-31T02:25:33;32.88;;;10.07;;
54823;SDS011;40724;53.196;5.980;2023-03-31T02:28:03;18.13;;;6.73;;
54823;SDS011;40724;53.196;5.980;2023-03-31T02:31:15;22.98;;;7.28;;
54823;SDS011;40724;53.196;5.980;2023-03-31T02:33:20;20.55;;;6.45;;
54823;SDS011;40724;53.196;5.980;2023-03-31T02:35:46;20.95;;;6.82;;
54823;SDS011;40724;53.196;5.980;2023-03-31T02:38:13;27.20;;;7.63;;
54823;SDS011;40724;53.196;5.980;2023-03-31T02:40:39;21.42;;;6.40;;
54823;SDS011;40724;53.196;5.980;2023-03-31T02:43:06;18.13;;;7.00;;
54823;SDS011;40724;53.196;5.980;2023-03-31T02:45:42;20.95;;;7.15;;
54823;SDS011;40724;53.196;5.980;2023-03-31T02:48:30;17.90;;;5.90;;
54823;SDS011;40724;53.196;5.980;2023-03-31T02:53:42;22.05;;;7.28;;
54823;SDS011;40724;53.196;5.980;2023-03-31T02:56:21;19.73;;;8.13;;
54823;SDS011;40724;53.196;5.980;2023-03-31T03:01:45;18.10;;;6.32;;
54823;SDS011;40724;53.196;5.980;2023-03-31T03:04:22;16.85;;;6.22;;
54823;SDS011;40724;53.196;5.980;2023-03-31T03:06:58;17.55;;;7.38;;
54823;SDS011;40724;53.196;5.980;2023-03-31T03:12:02;17.20;;;5.15;;
54823;SDS011;40724;53.196;5.980;2023-03-31T03:14:33;19.75;;;5.72;;
54823;SDS011;40724;53.196;5.980;2023-03-31T03:17:02;23.00;;;6.90;;
54823;SDS011;40724;53.196;5.980;2023-03-31T03:19:31;21.55;;;7.10;;
54823;SDS011;40724;53.196;5.980;2023-03-31T03:21:57;23.60;;;6.60;;
54823;SDS011;40724;53.196;5.980;2023-03-31T03:24:23;21.63;;;6.43;;
54823;SDS011;40724;53.196;5.980;2023-03-31T03:26:53;19.05;;;5.68;;
54823;SDS011;40724;53.196;5.980;2023-03-31T03:29:20;17.83;;;7.63;;
54823;SDS011;40724;53.196;5.980;2023-03-31T03:31:46;19.70;;;6.43;;
54823;SDS011;40724;53.196;5.980;2023-03-31T03:34:12;16.20;;;5.22;;
54823;SDS011;40724;53.196;5.980;2023-03-31T03:36:39;16.33;;;6.15;;
54823;SDS011;40724;53.196;5.980;2023-03-31T03:39:05;16.05;;;5.32;;
54823;SDS011;40724;53.196;5.980;2023-03-31T03:41:32;19.20;;;6.07;;
54823;SDS011;40724;53.196;5.980;2023-03-31T03:43:58;18.25;;;5.80;;
54823;SDS011;40724;53.196;5.980;2023-03-31T03:46:25;18.15;;;6.07;;
54823;SDS011;40724;53.196;5.980;2023-03-31T03:48:51;12.60;;;5.05;;
54823;SDS011;40724;53.196;5.980;2023-03-31T03:51:17;14.27;;;4.93;;
54823;SDS011;40724;53.196;5.980;2023-03-31T03:53:44;20.17;;;5.85;;
54823;SDS011;40724;53.196;5.980;2023-03-31T03:56:10;10.63;;;5.55;;
54823;SDS011;40724;53.196;5.980;2023-03-31T03:58:36;15.27;;;5.70;;
54823;SDS011;40724;53.196;5.980;2023-03-31T04:01:02;15.35;;;6.05;;
54823;SDS011;40724;53.196;5.980;2023-03-31T04:03:28;11.90;;;5.95;;
54823;SDS011;40724;53.196;5.980;2023-03-31T04:05:55;14.20;;;5.78;;
54823;SDS011;40724;53.196;5.980;2023-03-31T04:08:21;10.13;;;5.97;;
54823;SDS011;40724;53.196;5.980;2023-03-31T04:10:48;15.63;;;5.47;;
54823;SDS011;40724;53.196;5.980;2023-03-31T04:13:15;17.67;;;6.20;;
54823;SDS011;40724;53.196;5.980;2023-03-31T04:15:41;15.18;;;5.97;;
54823;SDS011;40724;53.196;5.980;2023-03-31T04:18:08;13.10;;;6.13;;
54823;SDS011;40724;53.196;5.980;2023-03-31T04:20:38;10.40;;;5.70;;
54823;SDS011;40724;53.196;5.980;2023-03-31T04:23:04;13.50;;;6.53;;
54823;SDS011;40724;53.196;5.980;2023-03-31T04:25:33;17.13;;;6.80;;
54823;SDS011;40724;53.196;5.980;2023-03-31T04:28:02;14.48;;;6.63;;
54823;SDS011;40724;53.196;5.980;2023-03-31T04:30:31;10.52;;;5.10;;
54823;SDS011;40724;53.196;5.980;2023-03-31T04:32:58;14.63;;;6.85;;
54823;SDS011;40724;53.196;5.980;2023-03-31T04:35:26;16.38;;;6.68;;
54823;SDS011;40724;53.196;5.980;2023-03-31T04:37:52;13.93;;;6.47;;
54823;SDS011;40724;53.196;5.980;2023-03-31T04:40:25;10.48;;;5.93;;
54823;SDS011;40724;53.196;5.980;2023-03-31T04:42:51;17.13;;;6.55;;
54823;SDS011;40724;53.196;5.980;2023-03-31T04:45:18;14.02;;;6.60;;
54823;SDS011;40724;53.196;5.980;2023-03-31T04:47:44;12.73;;;5.38;;
54823;SDS011;40724;53.196;5.980;2023-03-31T04:50:10;9.82;;;6.07;;
54823;SDS011;40724;53.196;5.980;2023-03-31T04:52:36;12.60;;;6.47;;
54823;SDS011;40724;53.196;5.980;2023-03-31T04:55:03;13.65;;;6.07;;
54823;SDS011;40724;53.196;5.980;2023-03-31T04:57:30;13.70;;;5.68;;
54823;SDS011;40724;53.196;5.980;2023-03-31T04:59:56;11.63;;;5.95;;
54823;SDS011;40724;53.196;5.980;2023-03-31T05:02:22;14.30;;;6.68;;
54823;SDS011;40724;53.196;5.980;2023-03-31T05:04:49;12.77;;;5.82;;
54823;SDS011;40724;53.196;5.980;2023-03-31T05:07:16;12.70;;;6.18;;
54823;SDS011;40724;53.196;5.980;2023-03-31T05:09:42;14.82;;;7.00;;
54823;SDS011;40724;53.196;5.980;2023-03-31T05:12:08;12.85;;;6.32;;
54823;SDS011;40724;53.196;5.980;2023-03-31T05:14:34;18.10;;;7.15;;
54823;SDS011;40724;53.196;5.980;2023-03-31T05:17:00;10.23;;;6.32;;
54823;SDS011;40724;53.196;5.980;2023-03-31T05:19:26;15.18;;;6.68;;
54823;SDS011;40724;53.196;5.980;2023-03-31T05:21:53;12.85;;;7.32;;
54823;SDS011;40724;53.196;5.980;2023-03-31T05:24:19;11.98;;;6.22;;
54823;SDS011;40724;53.196;5.980;2023-03-31T05:26:45;15.57;;;6.32;;
54823;SDS011;40724;53.196;5.980;2023-03-31T05:29:19;16.15;;;7.50;;
54823;SDS011;40724;53.196;5.980;2023-03-31T05:31:46;13.60;;;6.85;;
54823;SDS011;40724;53.196;5.980;2023-03-31T05:34:12;12.73;;;5.72;;
54823;SDS011;40724;53.196;5.980;2023-03-31T05:36:38;16.05;;;6.95;;
54823;SDS011;40724;53.196;5.980;2023-03-31T05:39:05;14.98;;;6.65;;
54823;SDS011;40724;53.196;5.980;2023-03-31T05:41:32;12.05;;;6.57;;
54823;SDS011;40724;53.196;5.980;2023-03-31T05:43:58;16.85;;;6.65;;
54823;SDS011;40724;53.196;5.980;2023-03-31T05:46:24;14.02;;;6.15;;
54823;SDS011;40724;53.196;5.980;2023-03-31T05:48:51;15.07;;;6.70;;
54823;SDS011;40724;53.196;5.980;2023-03-31T05:51:17;14.13;;;6.65;;
54823;SDS011;40724;53.196;5.980;2023-03-31T05:53:43;14.55;;;6.80;;
54823;SDS011;40724;53.196;5.980;2023-03-31T05:56:10;13.38;;;6.20;;
54823;SDS011;40724;53.196;5.980;2023-03-31T05:58:36;12.70;;;6.95;;
54823;SDS011;40724;53.196;5.980;2023-03-31T06:01:07;10.82;;;6.60;;
54823;SDS011;40724;53.196;5.980;2023-03-31T06:03:34;10.40;;;7.35;;
54823;SDS011;40724;53.196;5.980;2023-03-31T06:06:01;9.30;;;6.78;;
54823;SDS011;40724;53.196;5.980;2023-03-31T06:08:29;11.15;;;6.88;;
54823;SDS011;40724;53.196;5.980;2023-03-31T06:10:55;11.82;;;6.80;;
54823;SDS011;40724;53.196;5.980;2023-03-31T06:13:22;10.63;;;6.05;;
54823;SDS011;40724;53.196;5.980;2023-03-31T06:15:52;10.60;;;5.85;;
54823;SDS011;40724;53.196;5.980;2023-03-31T06:18:18;9.20;;;5.70;;
54823;SDS011;40724;53.196;5.980;2023-03-31T06:20:44;9.68;;;6.10;;
54823;SDS011;40724;53.196;5.980;2023-03-31T06:23:10;15.13;;;6.32;;
54823;SDS011;40724;53.196;5.980;2023-03-31T06:25:37;8.60;;;5.78;;
54823;SDS011;40724;53.196;5.980;2023-03-31T06:28:03;12.30;;;5.45;;
54823;SDS011;40724;53.196;5.980;2023-03-31T06:30:31;12.77;;;5.22;;
54823;SDS011;40724;53.196;5.980;2023-03-31T06:32:58;11.00;;;5.22;;
54823;SDS011;40724;53.196;5.980;2023-03-31T06:35:24;10.40;;;5.45;;
54823;SDS011;40724;53.196;5.980;2023-03-31T06:37:50;8.00;;;5.25;;
54823;SDS011;40724;53.196;5.980;2023-03-31T06:40:16;10.20;;;5.03;;
54823;SDS011;40724;53.196;5.980;2023-03-31T06:42:43;8.50;;;5.05;;
54823;SDS011;40724;53.196;5.980;2023-03-31T06:45:09;10.23;;;4.75;;
54823;SDS011;40724;53.196;5.980;2023-03-31T06:47:35;11.02;;;5.18;;
54823;SDS011;40724;53.196;5.980;2023-03-31T06:50:06;8.35;;;4.75;;
54823;SDS011;40724;53.196;5.980;2023-03-31T06:52:32;10.88;;;4.00;;
54823;SDS011;40724;53.196;5.980;2023-03-31T06:54:59;6.65;;;4.32;;
54823;SDS011;40724;53.196;5.980;2023-03-31T06:57:26;10.45;;;4.97;;
54823;SDS011;40724;53.196;5.980;2023-03-31T06:59:52;9.68;;;3.63;;
54823;SDS011;40724;53.196;5.980;2023-03-31T07:02:18;6.13;;;3.50;;
54823;SDS011;40724;53.196;5.980;2023-03-31T07:04:44;8.18;;;4.53;;
54823;SDS011;40724;53.196;5.980;2023-03-31T07:07:11;5.70;;;3.63;;
54823;SDS011;40724;53.196;5.980;2023-03-31T07:09:37;9.18;;;4.55;;
54823;SDS011;40724;53.196;5.980;2023-03-31T07:12:03;6.90;;;3.42;;
54823;SDS011;40724;53.196;5.980;2023-03-31T07:14:30;9.05;;;4.45;;
54823;SDS011;40724;53.196;5.980;2023-03-31T07:16:56;7.78;;;3.85;;
54823;SDS011;40724;53.196;5.980;2023-03-31T07:19:23;5.38;;;3.13;;
54823;SDS011;40724;53.196;5.980;2023-03-31T07:21:49;8.13;;;3.72;;
54823;SDS011;40724;53.196;5.980;2023-03-31T07:24:15;7.65;;;3.50;;
54823;SDS011;40724;53.196;5.980;2023-03-31T07:26:42;8.27;;;3.70;;
54823;SDS011;40724;53.196;5.980;2023-03-31T07:29:08;10.15;;;3.22;;
54823;SDS011;40724;53.196;5.980;2023-03-31T07:31:34;10.27;;;4.07;;
54823;SDS011;40724;53.196;5.980;2023-03-31T07:34:03;5.53;;;3.55;;
54823;SDS011;40724;53.196;5.980;2023-03-31T07:36:29;6.65;;;3.55;;
54823;SDS011;40724;53.196;5.980;2023-03-31T07:38:56;4.82;;;3.10;;
54823;SDS011;40724;53.196;5.980;2023-03-31T07:41:22;8.70;;;3.58;;
54823;SDS011;40724;53.196;5.980;2023-03-31T07:43:50;5.15;;;2.70;;
54823;SDS011;40724;53.196;5.980;2023-03-31T07:46:17;8.10;;;3.22;;
54823;SDS011;40724;53.196;5.980;2023-03-31T07:48:44;4.95;;;3.30;;
54823;SDS011;40724;53.196;5.980;2023-03-31T07:51:11;6.40;;;3.05;;
54823;SDS011;40724;53.196;5.980;2023-03-31T07:53:38;6.80;;;4.63;;
54823;SDS011;40724;53.196;5.980;2023-03-31T07:56:04;8.10;;;3.90;;
54823;SDS011;40724;53.196;5.980;2023-03-31T07:58:30;7.45;;;3.78;;
54823;SDS011;40724;53.196;5.980;2023-03-31T08:00:56;8.75;;;3.35;;
54823;SDS011;40724;53.196;5.980;2023-03-31T08:03:22;7.22;;;3.35;;
54823;SDS011;40724;53.196;5.980;2023-03-31T08:05:52;7.78;;;3.42;;
54823;SDS011;40724;53.196;5.980;2023-03-31T08:08:18;8.65;;;3.78;;
54823;SDS011;40724;53.196;5.980;2023-03-31T08:10:45;7.50;;;3.50;;
54823;SDS011;40724;53.196;5.980;2023-03-31T08:13:11;5.85;;;3.03;;
54823;SDS011;40724;53.196;5.980;2023-03-31T08:15:38;5.40;;;2.85;;
54823;SDS011;40724;53.196;5.980;2023-03-31T08:18:04;5.97;;;3.42;;
54823;SDS011;40724;53.196;5.980;2023-03-31T08:20:30;6.15;;;3.35;;
54823;SDS011;40724;53.196;5.980;2023-03-31T08:22:57;10.15;;;3.30;;
54823;SDS011;40724;53.196;5.980;2023-03-31T08:25:23;7.38;;;3.47;;
54823;SDS011;40724;53.196;5.980;2023-03-31T08:27:49;4.93;;;3.25;;
54823;SDS011;40724;53.196;5.980;2023-03-31T08:30:16;5.38;;;3.45;;
54823;SDS011;40724;53.196;5.980;2023-03-31T08:32:43;8.35;;;4.65;;
54823;SDS011;40724;53.196;5.980;2023-03-31T08:35:09;6.35;;;3.67;;
54823;SDS011;40724;53.196;5.980;2023-03-31T08:37:36;5.95;;;3.40;;
54823;SDS011;40724;53.196;5.980;2023-03-31T08:40:05;9.45;;;4.28;;
54823;SDS011;40724;53.196;5.980;2023-03-31T08:45:08;6.03;;;3.83;;
54823;SDS011;40724;53.196;5.980;2023-03-31T08:47:37;8.45;;;5.43;;
54823;SDS011;40724;53.196;5.980;2023-03-31T08:50:11;5.60;;;3.90;;
54823;SDS011;40724;53.196;5.980;2023-03-31T08:52:47;8.15;;;4.47;;
54823;SDS011;40724;53.196;5.980;2023-03-31T08:55:21;8.77;;;3.55;;
54823;SDS011;40724;53.196;5.980;2023-03-31T09:00:39;5.40;;;3.90;;
54823;SDS011;40724;53.196;5.980;2023-03-31T09:03:10;7.30;;;4.50;;
54823;SDS011;40724;53.196;5.980;2023-03-31T09:08:22;7.13;;;4.15;;
54823;SDS011;40724;53.196;5.980;2023-03-31T09:13:20;7.95;;;4.07;;
54823;SDS011;40724;53.196;5.980;2023-03-31T09:18:33;10.98;;;5.07;;
54823;SDS011;40724;53.196;5.980;2023-03-31T09:21:04;8.95;;;4.43;;
54823;SDS011;40724;53.196;5.980;2023-03-31T09:23:33;13.52;;;5.05;;
54823;SDS011;40724;53.196;5.980;2023-03-31T09:26:00;11.38;;;5.47;;
54823;SDS011;40724;53.196;5.980;2023-03-31T09:28:38;7.88;;;4.70;;
54823;SDS011;40724;53.196;5.980;2023-03-31T09:31:12;8.48;;;4.45;;
54823;SDS011;40724;53.196;5.980;2023-03-31T09:33:43;5.60;;;4.38;;
54823;SDS011;40724;53.196;5.980;2023-03-31T09:36:13;9.27;;;4.28;;
54823;SDS011;40724;53.196;5.980;2023-03-31T09:38:40;7.60;;;3.92;;
54823;SDS011;40724;53.196;5.980;2023-03-31T09:41:07;8.30;;;4.18;;
54823;SDS011;40724;53.196;5.980;2023-03-31T09:43:34;9.00;;;4.20;;
54823;SDS011;40724;53.196;5.980;2023-03-31T09:46:00;5.85;;;3.58;;
54823;SDS011;40724;53.196;5.980;2023-03-31T09:48:27;8.50;;;3.70;;
54823;SDS011;40724;53.196;5.980;2023-03-31T09:50:59;9.40;;;3.65;;
54823;SDS011;40724;53.196;5.980;2023-03-31T09:53:31;8.02;;;2.67;;
54823;SDS011;40724;53.196;5.980;2023-03-31T09:56:01;5.25;;;2.28;;
54823;SDS011;40724;53.196;5.980;2023-03-31T09:58:27;6.45;;;2.88;;
54823;SDS011;40724;53.196;5.980;2023-03-31T10:01:01;5.07;;;2.53;;
54823;SDS011;40724;53.196;5.980;2023-03-31T10:03:28;4.93;;;2.88;;
54823;SDS011;40724;53.196;5.980;2023-03-31T10:06:00;6.93;;;3.97;;
54823;SDS011;40724;53.196;5.980;2023-03-31T10:08:37;7.95;;;3.28;;
54823;SDS011;40724;53.196;5.980;2023-03-31T10:16:06;7.65;;;4.10;;
54823;SDS011;40724;53.196;5.980;2023-03-31T10:18:40;11.02;;;3.75;;
54823;SDS011;40724;53.196;5.980;2023-03-31T10:21:14;7.75;;;3.67;;
54823;SDS011;40724;53.196;5.980;2023-03-31T10:23:45;8.40;;;4.45;;
54823;SDS011;40724;53.196;5.980;2023-03-31T10:26:12;11.60;;;3.75;;
54823;SDS011;40724;53.196;5.980;2023-03-31T10:28:39;15.15;;;4.82;;
54823;SDS011;40724;53.196;5.980;2023-03-31T10:31:05;8.23;;;4.72;;
54823;SDS011;40724;53.196;5.980;2023-03-31T10:33:33;10.30;;;4.53;;
54823;SDS011;40724;53.196;5.980;2023-03-31T10:36:07;11.90;;;4.82;;
54823;SDS011;40724;53.196;5.980;2023-03-31T10:38:37;8.30;;;5.20;;
54823;SDS011;40724;53.196;5.980;2023-03-31T10:41:04;10.13;;;4.43;;
54823;SDS011;40724;53.196;5.980;2023-03-31T10:43:36;8.20;;;5.03;;
54823;SDS011;40724;53.196;5.980;2023-03-31T10:46:03;10.93;;;5.03;;
54823;SDS011;40724;53.196;5.980;2023-03-31T10:48:31;9.35;;;5.15;;
54823;SDS011;40724;53.196;5.980;2023-03-31T10:51:19;11.85;;;4.32;;
54823;SDS011;40724;53.196;5.980;2023-03-31T10:53:45;10.20;;;3.85;;
54823;SDS011;40724;53.196;5.980;2023-03-31T11:01:23;7.85;;;3.25;;
54823;SDS011;40724;53.196;5.980;2023-03-31T11:03:57;7.88;;;4.50;;
54823;SDS011;40724;53.196;5.980;2023-03-31T11:09:05;7.57;;;4.43;;
54823;SDS011;40724;53.196;5.980;2023-03-31T11:14:09;12.02;;;4.28;;
54823;SDS011;40724;53.196;5.980;2023-03-31T11:16:49;10.70;;;4.43;;
54823;SDS011;40724;53.196;5.980;2023-03-31T11:19:21;8.98;;;4.28;;
54823;SDS011;40724;53.196;5.980;2023-03-31T11:27:08;8.20;;;4.25;;
54823;SDS011;40724;53.196;5.980;2023-03-31T11:29:49;11.80;;;4.50;;
54823;SDS011;40724;53.196;5.980;2023-03-31T11:32:28;7.53;;;3.73;;
54823;SDS011;40724;53.196;5.980;2023-03-31T11:37:29;9.05;;;4.10;;
54823;SDS011;40724;53.196;5.980;2023-03-31T11:42:32;13.68;;;3.15;;
54823;SDS011;40724;53.196;5.980;2023-03-31T11:45:04;9.48;;;3.83;;
54823;SDS011;40724;53.196;5.980;2023-03-31T11:47:58;6.43;;;2.33;;
54823;SDS011;40724;53.196;5.980;2023-03-31T11:50:35;9.73;;;2.17;;
54823;SDS011;40724;53.196;5.980;2023-03-31T11:53:17;5.93;;;2.70;;
54823;SDS011;40724;53.196;5.980;2023-03-31T11:55:46;8.90;;;3.33;;
54823;SDS011;40724;53.196;5.980;2023-03-31T11:58:16;7.30;;;3.20;;
54823;SDS011;40724;53.196;5.980;2023-03-31T12:00:55;9.93;;;3.13;;
54823;SDS011;40724;53.196;5.980;2023-03-31T12:06:12;9.23;;;3.45;;
54823;SDS011;40724;53.196;5.980;2023-03-31T12:16:50;6.00;;;3.20;;
54823;SDS011;40724;53.196;5.980;2023-03-31T12:19:29;5.15;;;2.80;;
54823;SDS011;40724;53.196;5.980;2023-03-31T12:22:09;9.30;;;3.65;;
54823;SDS011;40724;53.196;5.980;2023-03-31T12:24:39;9.07;;;3.78;;
54823;SDS011;40724;53.196;5.980;2023-03-31T12:29:57;8.77;;;4.30;;
54823;SDS011;40724;53.196;5.980;2023-03-31T12:32:31;14.77;;;6.30;;
54823;SDS011;40724;53.196;5.980;2023-03-31T12:38:12;11.98;;;4.28;;
54823;SDS011;40724;53.196;5.980;2023-03-31T12:52:07;13.48;;;5.25;;
54823;SDS011;40724;53.196;5.980;2023-03-31T12:57:23;10.02;;;4.10;;
54823;SDS011;40724;53.196;5.980;2023-03-31T13:02:48;9.77;;;3.75;;
54823;SDS011;40724;53.196;5.980;2023-03-31T13:08:00;8.45;;;3.85;;
54823;SDS011;40724;53.196;5.980;2023-03-31T13:10:27;9.05;;;3.72;;
54823;SDS011;40724;53.196;5.980;2023-03-31T13:13:12;8.00;;;2.80;;
54823;SDS011;40724;53.196;5.980;2023-03-31T13:15:39;11.70;;;2.30;;
54823;SDS011;40724;53.196;5.980;2023-03-31T13:18:06;6.10;;;2.47;;
54823;SDS011;40724;53.196;5.980;2023-03-31T13:20:36;4.95;;;2.05;;
54823;SDS011;40724;53.196;5.980;2023-03-31T13:23:24;12.45;;;2.65;;
54823;SDS011;40724;53.196;5.980;2023-03-31T13:25:56;3.47;;;2.00;;
54823;SDS011;40724;53.196;5.980;2023-03-31T13:28:24;9.20;;;3.13;;
54823;SDS011;40724;53.196;5.980;2023-03-31T13:33:20;5.10;;;2.38;;
54823;SDS011;40724;53.196;5.980;2023-03-31T13:35:53;5.40;;;2.47;;
54823;SDS011;40724;53.196;5.980;2023-03-31T13:39:05;6.55;;;1.88;;
54823;SDS011;40724;53.196;5.980;2023-03-31T13:41:27;6.88;;;2.10;;
54823;SDS011;40724;53.196;5.980;2023-03-31T13:49:38;3.65;;;1.58;;
54823;SDS011;40724;53.196;5.980;2023-03-31T13:52:11;5.15;;;1.67;;
54823;SDS011;40724;53.196;5.980;2023-03-31T14:07:43;6.97;;;1.80;;
54823;SDS011;40724;53.196;5.980;2023-03-31T14:10:30;10.23;;;2.55;;
54823;SDS011;40724;53.196;5.980;2023-03-31T14:13:07;3.47;;;1.80;;
54823;SDS011;40724;53.196;5.980;2023-03-31T14:15:34;8.60;;;2.10;;
54823;SDS011;40724;53.196;5.980;2023-03-31T14:18:02;9.30;;;3.38;;
54823;SDS011;40724;53.196;5.980;2023-03-31T14:20:37;3.40;;;1.60;;
54823;SDS011;40724;53.196;5.980;2023-03-31T14:38:32;4.82;;;1.90;;
54823;SDS011;40724;53.196;5.980;2023-03-31T14:40:58;4.45;;;1.95;;
54823;SDS011;40724;53.196;5.980;2023-03-31T14:43:26;4.43;;;2.15;;
54823;SDS011;40724;53.196;5.980;2023-03-31T14:45:56;3.97;;;1.95;;
54823;SDS011;40724;53.196;5.980;2023-03-31T14:48:23;5.30;;;2.20;;
54823;SDS011;40724;53.196;5.980;2023-03-31T14:50:54;4.65;;;1.88;;
54823;SDS011;40724;53.196;5.980;2023-03-31T14:53:22;3.37;;;1.80;;
54823;SDS011;40724;53.196;5.980;2023-03-31T14:55:48;4.75;;;1.48;;
54823;SDS011;40724;53.196;5.980;2023-03-31T14:58:22;5.63;;;1.77;;
54823;SDS011;40724;53.196;5.980;2023-03-31T15:00:49;6.13;;;2.20;;
54823;SDS011;40724;53.196;5.980;2023-03-31T15:03:16;5.15;;;2.17;;
54823;SDS011;40724;53.196;5.980;2023-03-31T15:05:42;6.68;;;1.88;;
54823;SDS011;40724;53.196;5.980;2023-03-31T15:08:19;6.95;;;2.55;;
54823;SDS011;40724;53.196;5.980;2023-03-31T15:10:48;8.10;;;2.35;;
54823;SDS011;40724;53.196;5.980;2023-03-31T15:13:17;5.20;;;1.60;;
54823;SDS011;40724;53.196;5.980;2023-03-31T15:15:44;4.80;;;1.48;;
54823;SDS011;40724;53.196;5.980;2023-03-31T15:18:11;4.82;;;1.83;;
54823;SDS011;40724;53.196;5.980;2023-03-31T15:20:38;5.35;;;2.30;;
54823;SDS011;40724;53.196;5.980;2023-03-31T15:25:50;3.13;;;1.60;;
54823;SDS011;40724;53.196;5.980;2023-03-31T15:28:17;6.90;;;1.88;;
54823;SDS011;40724;53.196;5.980;2023-03-31T15:30:43;7.85;;;1.77;;
54823;SDS011;40724;53.196;5.980;2023-03-31T15:36:12;7.03;;;2.28;;
54823;SDS011;40724;53.196;5.980;2023-03-31T15:38:39;3.70;;;1.73;;
54823;SDS011;40724;53.196;5.980;2023-03-31T15:41:12;6.45;;;1.95;;
54823;SDS011;40724;53.196;5.980;2023-03-31T15:46:08;7.57;;;2.95;;
54823;SDS011;40724;53.196;5.980;2023-03-31T15:48:36;11.40;;;2.60;;
54823;SDS011;40724;53.196;5.980;2023-03-31T15:56:56;5.47;;;2.10;;
54823;SDS011;40724;53.196;5.980;2023-03-31T15:59:00;4.32;;;2.10;;
54823;SDS011;40724;53.196;5.980;2023-03-31T16:01:37;6.45;;;3.00;;
54823;SDS011;40724;53.196;5.980;2023-03-31T16:04:07;7.03;;;2.72;;
54823;SDS011;40724;53.196;5.980;2023-03-31T16:09:04;9.20;;;2.70;;
54823;SDS011;40724;53.196;5.980;2023-03-31T16:11:43;4.22;;;2.65;;
54823;SDS011;40724;53.196;5.980;2023-03-31T16:14:21;6.18;;;2.60;;
54823;SDS011;40724;53.196;5.980;2023-03-31T16:16:49;6.43;;;2.20;;
54823;SDS011;40724;53.196;5.980;2023-03-31T16:19:17;6.68;;;2.40;;
54823;SDS011;40724;53.196;5.980;2023-03-31T16:21:46;5.90;;;2.45;;
54823;SDS011;40724;53.196;5.980;2023-03-31T16:24:18;6.03;;;2.80;;
54823;SDS011;40724;53.196;5.980;2023-03-31T16:26:44;7.03;;;3.08;;
54823;SDS011;40724;53.196;5.980;2023-03-31T16:29:20;5.97;;;2.28;;
54823;SDS011;40724;53.196;5.980;2023-03-31T16:31:47;6.63;;;2.10;;
54823;SDS011;40724;53.196;5.980;2023-03-31T16:34:14;6.30;;;2.25;;
54823;SDS011;40724;53.196;5.980;2023-03-31T16:36:40;6.05;;;2.88;;
54823;SDS011;40724;53.196;5.980;2023-03-31T16:39:06;6.18;;;2.30;;
54823;SDS011;40724;53.196;5.980;2023-03-31T16:41:33;4.60;;;1.92;;
54823;SDS011;40724;53.196;5.980;2023-03-31T16:44:01;5.38;;;2.05;;
54823;SDS011;40724;53.196;5.980;2023-03-31T16:46:28;7.05;;;3.42;;
54823;SDS011;40724;53.196;5.980;2023-03-31T16:48:54;7.30;;;2.22;;
54823;SDS011;40724;53.196;5.980;2023-03-31T16:51:20;7.25;;;2.55;;
54823;SDS011;40724;53.196;5.980;2023-03-31T16:53:47;7.80;;;2.35;;
54823;SDS011;40724;53.196;5.980;2023-03-31T16:56:14;9.95;;;3.13;;
54823;SDS011;40724;53.196;5.980;2023-03-31T16:58:40;9.18;;;2.95;;
54823;SDS011;40724;53.196;5.980;2023-03-31T17:01:07;4.75;;;2.08;;
54823;SDS011;40724;53.196;5.980;2023-03-31T17:03:33;6.15;;;2.70;;
54823;SDS011;40724;53.196;5.980;2023-03-31T17:06:05;9.13;;;3.10;;
54823;SDS011;40724;53.196;5.980;2023-03-31T17:08:31;6.72;;;2.47;;
54823;SDS011;40724;53.196;5.980;2023-03-31T17:11:01;5.93;;;2.85;;
54823;SDS011;40724;53.196;5.980;2023-03-31T17:13:29;8.05;;;3.13;;
54823;SDS011;40724;53.196;5.980;2023-03-31T17:15:56;4.50;;;2.58;;
54823;SDS011;40724;53.196;5.980;2023-03-31T17:18:23;5.93;;;3.00;;
54823;SDS011;40724;53.196;5.980;2023-03-31T17:20:50;8.57;;;3.60;;
54823;SDS011;40724;53.196;5.980;2023-03-31T17:23:18;10.20;;;3.65;;
54823;SDS011;40724;53.196;5.980;2023-03-31T17:25:47;6.32;;;2.85;;
54823;SDS011;40724;53.196;5.980;2023-03-31T17:28:14;6.78;;;2.83;;
54823;SDS011;40724;53.196;5.980;2023-03-31T17:30:40;6.88;;;2.95;;
54823;SDS011;40724;53.196;5.980;2023-03-31T17:33:09;9.48;;;4.35;;
54823;SDS011;40724;53.196;5.980;2023-03-31T17:35:38;6.18;;;3.53;;